KCDR

Chadron Municipal Airport

Chadron, Nebraska, USA
METAR KCDR 211253Z AUTO 27006KT 10SM CLR M27/M32 A3030 RMK AO2 SLP368 T12721317
Observed Flight Rules
Feb-21 @ 12:53 UTC (24 minutes ago) Visual Flight Rules
Wind Visibility Clouds
270° at 6 knots 10 miles
  • Clear skies
Temperatures Readings
Current -27°C / -17°F
Dewpoint -32°C / -26°F
Humidity 63%
Altimeter 30.3" Hg
Pressure 1036.8 hPa
Elevation 1010
METAR KCDR 211253Z AUTO 27006KT 10SM CLR M27/M32 A3030 RMK AO2 SLP368 T12721317
Observed Flight Rules
Feb-21 @ 12:53 UTC
(24 minutes ago)
VFR
Wind Visibility
270° at 6 knots 10 miles
Clouds
  • Clear skies
Temperature Dewpoint
-27°C / -17°F -32°C / -26°F
Humidity Altimeter Pressure
63% 30.3" Hg 1036.8 hPa